sensor_id;sensor_type;location;lat;lon;timestamp;pressure;altitude;pressure_sealevel;temperature;humidity
28312;BME280;15572;48.810;9.148;2023-06-24T00:02:02;98947.66;;;17.31;83.40
28312;BME280;15572;48.810;9.148;2023-06-24T00:06:59;98953.69;;;17.39;84.46
28312;BME280;15572;48.810;9.148;2023-06-24T00:11:57;98957.19;;;17.21;85.24
28312;BME280;15572;48.810;9.148;2023-06-24T00:16:56;98959.16;;;17.14;86.64
28312;BME280;15572;48.810;9.148;2023-06-24T00:21:53;98947.78;;;17.11;86.91
28312;BME280;15572;48.810;9.148;2023-06-24T00:26:49;98953.84;;;16.81;88.56
28312;BME280;15572;48.810;9.148;2023-06-24T00:31:46;98949.13;;;16.51;91.20
28312;BME280;15572;48.810;9.148;2023-06-24T00:36:43;98952.31;;;16.41;92.16
28312;BME280;15572;48.810;9.148;2023-06-24T00:41:42;98949.56;;;16.41;92.87
28312;BME280;15572;48.810;9.148;2023-06-24T00:46:39;98957.41;;;16.24;93.87
28312;BME280;15572;48.810;9.148;2023-06-24T00:51:35;98956.38;;;16.19;94.60
28312;BME280;15572;48.810;9.148;2023-06-24T00:56:34;98954.06;;;16.22;94.75
28312;BME280;15572;48.810;9.148;2023-06-24T01:01:34;98950.91;;;16.19;94.85
28312;BME280;15572;48.810;9.148;2023-06-24T01:06:31;98955.13;;;16.15;94.72
28312;BME280;15572;48.810;9.148;2023-06-24T01:11:29;98958.28;;;16.05;95.77
28312;BME280;15572;48.810;9.148;2023-06-24T01:16:33;98954.31;;;15.94;96.85
28312;BME280;15572;48.810;9.148;2023-06-24T01:21:41;98949.31;;;15.85;97.88
28312;BME280;15572;48.810;9.148;2023-06-24T01:27:00;98947.22;;;15.67;99.32
28312;BME280;15572;48.810;9.148;2023-06-24T01:32:06;98948.69;;;15.70;99.00
28312;BME280;15572;48.810;9.148;2023-06-24T01:37:11;98948.66;;;15.83;99.22
28312;BME280;15572;48.810;9.148;2023-06-24T01:42:10;98947.81;;;15.82;99.93
28312;BME280;15572;48.810;9.148;2023-06-24T01:47:09;98946.38;;;15.60;100.00
28312;BME280;15572;48.810;9.148;2023-06-24T01:52:08;98938.41;;;15.52;100.00
28312;BME280;15572;48.810;9.148;2023-06-24T01:57:07;98937.56;;;15.38;100.00
28312;BME280;15572;48.810;9.148;2023-06-24T02:02:05;98927.25;;;15.27;100.00
28312;BME280;15572;48.810;9.148;2023-06-24T02:07:04;98937.09;;;15.08;100.00
28312;BME280;15572;48.810;9.148;2023-06-24T02:12:03;98932.47;;;15.09;100.00
28312;BME280;15572;48.810;9.148;2023-06-24T02:17:03;98938.56;;;15.24;100.00
28312;BME280;15572;48.810;9.148;2023-06-24T02:22:01;98937.72;;;15.10;100.00
28312;BME280;15572;48.810;9.148;2023-06-24T02:27:01;98925.53;;;14.93;100.00
28312;BME280;15572;48.810;9.148;2023-06-24T02:31:58;98921.31;;;14.78;100.00
28312;BME280;15572;48.810;9.148;2023-06-24T02:36:54;98921.06;;;14.66;100.00
28312;BME280;15572;48.810;9.148;2023-06-24T02:41:51;98921.72;;;14.81;100.00
28312;BME280;15572;48.810;9.148;2023-06-24T02:46:49;98916.06;;;14.83;100.00
28312;BME280;15572;48.810;9.148;2023-06-24T02:51:48;98924.44;;;14.81;100.00
28312;BME280;15572;48.810;9.148;2023-06-24T02:56:44;98930.31;;;14.71;100.00
28312;BME280;15572;48.810;9.148;2023-06-24T03:01:41;98931.56;;;14.75;100.00
28312;BME280;15572;48.810;9.148;2023-06-24T03:06:42;98929.91;;;14.88;100.00
28312;BME280;15572;48.810;9.148;2023-06-24T03:11:42;98931.63;;;14.95;100.00
28312;BME280;15572;48.810;9.148;2023-06-24T03:16:39;98927.81;;;14.96;100.00
28312;BME280;15572;48.810;9.148;2023-06-24T03:21:36;98930.53;;;14.83;100.00
28312;BME280;15572;48.810;9.148;2023-06-24T03:26:34;98938.06;;;14.68;100.00
28312;BME280;15572;48.810;9.148;2023-06-24T03:31:31;98948.28;;;14.53;100.00
28312;BME280;15572;48.810;9.148;2023-06-24T03:36:27;98959.78;;;14.55;100.00
28312;BME280;15572;48.810;9.148;2023-06-24T03:41:24;98969.88;;;14.61;100.00
28312;BME280;15572;48.810;9.148;2023-06-24T03:46:22;98980.22;;;14.85;100.00
28312;BME280;15572;48.810;9.148;2023-06-24T03:51:19;98982.09;;;14.78;100.00
28312;BME280;15572;48.810;9.148;2023-06-24T03:56:16;98977.31;;;14.93;100.00
28312;BME280;15572;48.810;9.148;2023-06-24T04:01:13;98978.19;;;15.07;100.00
28312;BME280;15572;48.810;9.148;2023-06-24T04:06:11;98979.25;;;15.06;100.00
28312;BME280;15572;48.810;9.148;2023-06-24T04:11:08;98979.06;;;15.14;100.00
28312;BME280;15572;48.810;9.148;2023-06-24T04:16:04;98989.16;;;15.27;100.00
28312;BME280;15572;48.810;9.148;2023-06-24T04:21:01;98998.41;;;15.32;100.00
28312;BME280;15572;48.810;9.148;2023-06-24T04:25:59;98999.66;;;15.36;100.00
28312;BME280;15572;48.810;9.148;2023-06-24T04:30:56;99004.69;;;15.39;100.00
28312;BME280;15572;48.810;9.148;2023-06-24T04:35:52;99005.94;;;15.50;100.00
28312;BME280;15572;48.810;9.148;2023-06-24T04:40:49;99012.31;;;15.64;100.00
28312;BME280;15572;48.810;9.148;2023-06-24T04:45:47;99011.06;;;15.79;100.00
28312;BME280;15572;48.810;9.148;2023-06-24T04:50:43;99012.72;;;16.00;100.00
28312;BME280;15572;48.810;9.148;2023-06-24T04:55:40;99009.31;;;16.24;100.00
28312;BME280;15572;48.810;9.148;2023-06-24T05:00:36;99006.28;;;16.52;100.00
28312;BME280;15572;48.810;9.148;2023-06-24T05:05:34;99007.69;;;16.81;100.00
28312;BME280;15572;48.810;9.148;2023-06-24T05:10:30;99013.06;;;17.01;100.00
28312;BME280;15572;48.810;9.148;2023-06-24T05:15:27;99016.13;;;17.17;100.00
28312;BME280;15572;48.810;9.148;2023-06-24T05:20:23;99019.38;;;17.39;100.00
28312;BME280;15572;48.810;9.148;2023-06-24T05:25:24;99013.78;;;17.52;100.00
28312;BME280;15572;48.810;9.148;2023-06-24T05:30:21;99011.63;;;17.67;97.94
28312;BME280;15572;48.810;9.148;2023-06-24T05:35:18;99024.94;;;17.89;96.92
28312;BME280;15572;48.810;9.148;2023-06-24T05:40:14;99025.88;;;18.01;95.91
28312;BME280;15572;48.810;9.148;2023-06-24T05:45:15;99021.72;;;18.17;94.89
28312;BME280;15572;48.810;9.148;2023-06-24T05:50:11;99024.72;;;18.33;94.18
28312;BME280;15572;48.810;9.148;2023-06-24T05:55:08;99022.00;;;18.51;92.41
28312;BME280;15572;48.810;9.148;2023-06-24T06:00:06;99027.06;;;18.73;89.03
28312;BME280;15572;48.810;9.148;2023-06-24T06:05:04;99019.06;;;18.89;88.08
28312;BME280;15572;48.810;9.148;2023-06-24T06:10:01;99022.38;;;19.10;87.27
28312;BME280;15572;48.810;9.148;2023-06-24T06:14:58;99024.72;;;19.24;86.44
28312;BME280;15572;48.810;9.148;2023-06-24T06:19:54;99021.31;;;19.41;85.12
28312;BME280;15572;48.810;9.148;2023-06-24T06:24:55;99018.72;;;19.46;77.85
28312;BME280;15572;48.810;9.148;2023-06-24T06:29:51;99009.34;;;19.53;77.33
28312;BME280;15572;48.810;9.148;2023-06-24T06:34:48;99009.38;;;19.65;77.63
28312;BME280;15572;48.810;9.148;2023-06-24T06:39:44;99007.84;;;19.81;74.28
28312;BME280;15572;48.810;9.148;2023-06-24T06:44:44;99011.19;;;19.94;73.64
28312;BME280;15572;48.810;9.148;2023-06-24T06:49:41;99006.69;;;20.11;72.18
28312;BME280;15572;48.810;9.148;2023-06-24T06:55:01;99003.22;;;20.28;71.52
28312;BME280;15572;48.810;9.148;2023-06-24T07:00:20;99008.03;;;20.44;71.01
28312;BME280;15572;48.810;9.148;2023-06-24T07:05:16;99005.59;;;20.59;70.15
28312;BME280;15572;48.810;9.148;2023-06-24T07:10:13;99002.00;;;20.70;69.85
28312;BME280;15572;48.810;9.148;2023-06-24T07:15:10;98995.97;;;20.85;68.74
28312;BME280;15572;48.810;9.148;2023-06-24T07:20:09;99003.97;;;20.98;66.83
28312;BME280;15572;48.810;9.148;2023-06-24T07:25:06;99004.25;;;21.13;65.74
28312;BME280;15572;48.810;9.148;2023-06-24T07:30:04;99006.91;;;21.20;63.80
28312;BME280;15572;48.810;9.148;2023-06-24T07:35:00;99005.44;;;21.29;63.19
28312;BME280;15572;48.810;9.148;2023-06-24T07:39:58;99001.44;;;21.36;61.39
28312;BME280;15572;48.810;9.148;2023-06-24T07:44:55;98998.88;;;21.47;56.99
28312;BME280;15572;48.810;9.148;2023-06-24T07:49:52;99003.13;;;21.54;59.07
28312;BME280;15572;48.810;9.148;2023-06-24T07:54:48;99000.16;;;21.72;59.63
28312;BME280;15572;48.810;9.148;2023-06-24T07:59:46;99001.50;;;21.87;59.75
28312;BME280;15572;48.810;9.148;2023-06-24T08:04:43;98994.16;;;21.92;59.11
28312;BME280;15572;48.810;9.148;2023-06-24T08:09:40;98990.94;;;21.95;57.85
28312;BME280;15572;48.810;9.148;2023-06-24T08:14:36;98994.63;;;22.01;57.31
28312;BME280;15572;48.810;9.148;2023-06-24T08:19:34;98986.44;;;22.06;56.53
28312;BME280;15572;48.810;9.148;2023-06-24T08:24:31;98985.75;;;22.15;54.93
28312;BME280;15572;48.810;9.148;2023-06-24T08:29:28;98981.47;;;22.24;54.92
28312;BME280;15572;48.810;9.148;2023-06-24T08:34:24;98983.38;;;22.41;54.78
28312;BME280;15572;48.810;9.148;2023-06-24T08:39:22;98977.50;;;22.54;54.51
28312;BME280;15572;48.810;9.148;2023-06-24T08:44:19;98973.00;;;22.70;55.29
28312;BME280;15572;48.810;9.148;2023-06-24T08:49:24;98974.31;;;23.05;54.21
28312;BME280;15572;48.810;9.148;2023-06-24T08:54:24;98978.19;;;23.31;50.44
28312;BME280;15572;48.810;9.148;2023-06-24T08:59:21;98973.25;;;23.33;49.87
28312;BME280;15572;48.810;9.148;2023-06-24T09:04:18;98979.31;;;23.35;48.74
28312;BME280;15572;48.810;9.148;2023-06-24T09:09:21;98977.03;;;23.27;46.41
28312;BME280;15572;48.810;9.148;2023-06-24T09:14:25;98972.28;;;23.23;47.25
28312;BME280;15572;48.810;9.148;2023-06-24T09:19:22;98969.63;;;23.06;47.90
28312;BME280;15572;48.810;9.148;2023-06-24T09:24:27;98961.41;;;23.11;48.55
28312;BME280;15572;48.810;9.148;2023-06-24T09:29:27;98954.47;;;23.35;48.21
28312;BME280;15572;48.810;9.148;2023-06-24T09:34:31;98940.41;;;23.37;46.82
28312;BME280;15572;48.810;9.148;2023-06-24T09:39:37;98948.22;;;23.18;46.14
28312;BME280;15572;48.810;9.148;2023-06-24T09:44:36;98942.81;;;23.28;45.54
28312;BME280;15572;48.810;9.148;2023-06-24T09:49:33;98931.06;;;23.43;43.45
28312;BME280;15572;48.810;9.148;2023-06-24T09:54:30;98942.63;;;23.67;43.74
28312;BME280;15572;48.810;9.148;2023-06-24T09:59:27;98923.50;;;23.92;42.75
28312;BME280;15572;48.810;9.148;2023-06-24T10:04:27;98921.66;;;24.08;41.19
28312;BME280;15572;48.810;9.148;2023-06-24T10:09:24;98925.38;;;24.18;41.49
28312;BME280;15572;48.810;9.148;2023-06-24T10:14:20;98919.94;;;24.39;41.40
28312;BME280;15572;48.810;9.148;2023-06-24T10:19:19;98911.16;;;24.52;40.80
28312;BME280;15572;48.810;9.148;2023-06-24T10:24:36;98906.50;;;24.62;40.54
28312;BME280;15572;48.810;9.148;2023-06-24T10:29:35;98904.88;;;24.71;40.01
28312;BME280;15572;48.810;9.148;2023-06-24T10:34:46;98894.91;;;24.70;37.73
28312;BME280;15572;48.810;9.148;2023-06-24T10:39:52;98897.41;;;24.72;36.24
28312;BME280;15572;48.810;9.148;2023-06-24T10:44:56;98879.97;;;24.71;36.25
28312;BME280;15572;48.810;9.148;2023-06-24T10:50:11;98879.22;;;24.96;37.03
28312;BME280;15572;48.810;9.148;2023-06-24T10:55:09;98881.78;;;25.28;37.80
28312;BME280;15572;48.810;9.148;2023-06-24T11:00:07;98869.88;;;25.53;37.53
28312;BME280;15572;48.810;9.148;2023-06-24T11:05:04;98860.66;;;26.18;35.84
28312;BME280;15572;48.810;9.148;2023-06-24T11:10:02;98865.44;;;26.87;35.25
28312;BME280;15572;48.810;9.148;2023-06-24T11:15:03;98853.59;;;27.49;34.14
28312;BME280;15572;48.810;9.148;2023-06-24T11:20:02;98850.63;;;27.75;33.22
28312;BME280;15572;48.810;9.148;2023-06-24T11:25:02;98841.34;;;28.37;33.45
28312;BME280;15572;48.810;9.148;2023-06-24T11:30:00;98844.69;;;28.81;32.97
28312;BME280;15572;48.810;9.148;2023-06-24T11:34:59;98829.44;;;29.35;32.92
28312;BME280;15572;48.810;9.148;2023-06-24T11:50:43;98809.56;;;30.83;31.07
28312;BME280;15572;48.810;9.148;2023-06-24T11:55:40;98803.47;;;31.17;30.99
28312;BME280;15572;48.810;9.148;2023-06-24T12:00:38;98802.09;;;31.51;29.94
28312;BME280;15572;48.810;9.148;2023-06-24T12:05:36;98788.19;;;31.01;30.39
28312;BME280;15572;48.810;9.148;2023-06-24T12:10:37;98801.66;;;29.76;31.42
28312;BME280;15572;48.810;9.148;2023-06-24T12:15:34;98787.31;;;29.69;31.22
28312;BME280;15572;48.810;9.148;2023-06-24T12:20:31;98767.91;;;30.19;30.94
28312;BME280;15572;48.810;9.148;2023-06-24T12:25:27;98764.41;;;30.90;29.66
28312;BME280;15572;48.810;9.148;2023-06-24T12:30:25;98764.25;;;31.53;28.36
28312;BME280;15572;48.810;9.148;2023-06-24T12:35:22;98767.13;;;31.93;27.23
28312;BME280;15572;48.810;9.148;2023-06-24T12:40:20;98758.25;;;32.30;26.56
28312;BME280;15572;48.810;9.148;2023-06-24T12:45:16;98746.88;;;32.35;25.54
28312;BME280;15572;48.810;9.148;2023-06-24T12:50:14;98745.44;;;32.07;24.89
28312;BME280;15572;48.810;9.148;2023-06-24T12:55:11;98733.97;;;31.77;25.20
28312;BME280;15572;48.810;9.148;2023-06-24T13:00:09;98741.97;;;30.32;26.79
28312;BME280;15572;48.810;9.148;2023-06-24T13:05:06;98720.31;;;31.23;26.00
28312;BME280;15572;48.810;9.148;2023-06-24T13:10:05;98715.81;;;31.13;27.09
28312;BME280;15572;48.810;9.148;2023-06-24T13:15:02;98712.03;;;30.95;28.16
28312;BME280;15572;48.810;9.148;2023-06-24T13:19:59;98718.31;;;31.01;27.54
28312;BME280;15572;48.810;9.148;2023-06-24T13:24:56;98714.56;;;30.47;27.19
28312;BME280;15572;48.810;9.148;2023-06-24T13:29:54;98704.38;;;30.65;27.45
28312;BME280;15572;48.810;9.148;2023-06-24T13:34:51;98697.16;;;31.31;27.14
28312;BME280;15572;48.810;9.148;2023-06-24T13:39:47;98694.72;;;32.00;26.95
28312;BME280;15572;48.810;9.148;2023-06-24T13:44:44;98688.78;;;32.01;26.02
28312;BME280;15572;48.810;9.148;2023-06-24T13:49:41;98698.06;;;31.18;25.60
28312;BME280;15572;48.810;9.148;2023-06-24T13:54:38;98693.03;;;30.84;26.20
28312;BME280;15572;48.810;9.148;2023-06-24T13:59:34;98690.06;;;30.31;27.11
28312;BME280;15572;48.810;9.148;2023-06-24T14:04:31;98681.00;;;29.84;27.84
28312;BME280;15572;48.810;9.148;2023-06-24T14:09:29;98671.16;;;29.13;28.86
28312;BME280;15572;48.810;9.148;2023-06-24T14:14:25;98662.69;;;29.05;29.15
28312;BME280;15572;48.810;9.148;2023-06-24T14:19:22;98659.66;;;29.34;29.12
28312;BME280;15572;48.810;9.148;2023-06-24T14:24:18;98669.13;;;29.92;29.29
28312;BME280;15572;48.810;9.148;2023-06-24T14:29:16;98654.75;;;29.85;28.08
28312;BME280;15572;48.810;9.148;2023-06-24T14:34:13;98660.09;;;29.82;28.43
28312;BME280;15572;48.810;9.148;2023-06-24T14:39:12;98649.25;;;30.21;28.77
28312;BME280;15572;48.810;9.148;2023-06-24T14:44:08;98641.66;;;30.49;28.48
28312;BME280;15572;48.810;9.148;2023-06-24T14:49:06;98643.19;;;30.41;28.27
28312;BME280;15572;48.810;9.148;2023-06-24T14:54:03;98633.25;;;29.99;28.70
28312;BME280;15572;48.810;9.148;2023-06-24T14:58:59;98631.22;;;29.91;28.41
28312;BME280;15572;48.810;9.148;2023-06-24T15:03:56;98631.22;;;29.64;28.86
28312;BME280;15572;48.810;9.148;2023-06-24T15:08:53;98629.34;;;29.46;28.95
28312;BME280;15572;48.810;9.148;2023-06-24T15:13:50;98624.63;;;29.14;28.96
28312;BME280;15572;48.810;9.148;2023-06-24T15:18:47;98613.38;;;29.05;29.61
28312;BME280;15572;48.810;9.148;2023-06-24T15:23:46;98612.31;;;29.01;29.80
28312;BME280;15572;48.810;9.148;2023-06-24T15:28:43;98599.63;;;29.09;29.87
28312;BME280;15572;48.810;9.148;2023-06-24T15:33:40;98605.41;;;29.12;29.90
28312;BME280;15572;48.810;9.148;2023-06-24T15:38:36;98596.28;;;28.79;30.34
28312;BME280;15572;48.810;9.148;2023-06-24T15:43:33;98597.59;;;28.50;30.54
28312;BME280;15572;48.810;9.148;2023-06-24T15:48:31;98591.22;;;28.30;30.58
28312;BME280;15572;48.810;9.148;2023-06-24T15:53:27;98584.75;;;28.16;31.02
28312;BME280;15572;48.810;9.148;2023-06-24T15:58:24;98584.66;;;28.21;31.08
28312;BME280;15572;48.810;9.148;2023-06-24T16:03:20;98579.63;;;28.23;31.44
28312;BME280;15572;48.810;9.148;2023-06-24T16:08:18;98580.75;;;28.22;31.59
28312;BME280;15572;48.810;9.148;2023-06-24T16:13:14;98576.94;;;28.18;31.23
28312;BME280;15572;48.810;9.148;2023-06-24T16:18:11;98564.16;;;28.17;31.04
28312;BME280;15572;48.810;9.148;2023-06-24T16:23:07;98562.91;;;27.86;31.75
28312;BME280;15572;48.810;9.148;2023-06-24T16:28:05;98558.56;;;27.80;31.24
28312;BME280;15572;48.810;9.148;2023-06-24T16:33:02;98563.06;;;27.94;31.45
28312;BME280;15572;48.810;9.148;2023-06-24T16:37:58;98560.53;;;27.98;31.23
28312;BME280;15572;48.810;9.148;2023-06-24T16:42:55;98552.84;;;28.09;31.54
28312;BME280;15572;48.810;9.148;2023-06-24T16:47:53;98558.09;;;28.10;31.29
28312;BME280;15572;48.810;9.148;2023-06-24T16:52:49;98548.56;;;27.97;31.03
28312;BME280;15572;48.810;9.148;2023-06-24T16:57:45;98548.94;;;27.91;30.88
28312;BME280;15572;48.810;9.148;2023-06-24T17:02:42;98552.25;;;27.93;30.92
28312;BME280;15572;48.810;9.148;2023-06-24T17:07:40;98544.66;;;28.17;31.02
28312;BME280;15572;48.810;9.148;2023-06-24T17:12:36;98534.28;;;28.23;30.77
28312;BME280;15572;48.810;9.148;2023-06-24T17:17:33;98536.31;;;28.17;31.30
28312;BME280;15572;48.810;9.148;2023-06-24T17:22:29;98537.06;;;28.04;31.19
28312;BME280;15572;48.810;9.148;2023-06-24T17:27:27;98530.59;;;27.90;31.62
28312;BME280;15572;48.810;9.148;2023-06-24T17:32:24;98530.25;;;27.78;32.13
28312;BME280;15572;48.810;9.148;2023-06-24T17:37:20;98532.25;;;27.72;33.03
28312;BME280;15572;48.810;9.148;2023-06-24T17:42:17;98523.75;;;27.63;33.08
28312;BME280;15572;48.810;9.148;2023-06-24T17:47:16;98529.16;;;27.55;32.42
28312;BME280;15572;48.810;9.148;2023-06-24T17:52:13;98534.50;;;27.46;33.25
28312;BME280;15572;48.810;9.148;2023-06-24T17:57:09;98519.91;;;27.36;33.12
28312;BME280;15572;48.810;9.148;2023-06-24T18:02:06;98525.31;;;27.27;33.76
28312;BME280;15572;48.810;9.148;2023-06-24T18:07:04;98530.09;;;27.21;33.95
28312;BME280;15572;48.810;9.148;2023-06-24T18:12:00;98522.94;;;27.15;33.56
28312;BME280;15572;48.810;9.148;2023-06-24T18:16:57;98525.31;;;27.03;34.01
28312;BME280;15572;48.810;9.148;2023-06-24T18:21:53;98531.81;;;26.94;33.74
28312;BME280;15572;48.810;9.148;2023-06-24T18:26:51;98526.88;;;26.86;34.10
28312;BME280;15572;48.810;9.148;2023-06-24T18:31:47;98526.69;;;26.77;35.54
28312;BME280;15572;48.810;9.148;2023-06-24T18:36:44;98519.22;;;26.72;34.74
28312;BME280;15572;48.810;9.148;2023-06-24T18:41:40;98514.34;;;26.64;35.00
28312;BME280;15572;48.810;9.148;2023-06-24T18:46:38;98511.66;;;26.54;35.01
28312;BME280;15572;48.810;9.148;2023-06-24T18:51:35;98519.53;;;26.42;35.12
28312;BME280;15572;48.810;9.148;2023-06-24T18:56:31;98516.06;;;26.26;35.65
28312;BME280;15572;48.810;9.148;2023-06-24T19:01:28;98507.31;;;26.09;35.97
28312;BME280;15572;48.810;9.148;2023-06-24T19:06:25;98516.03;;;25.92;36.30
28312;BME280;15572;48.810;9.148;2023-06-24T19:11:22;98521.16;;;25.70;36.72
28312;BME280;15572;48.810;9.148;2023-06-24T19:16:19;98509.88;;;25.51;37.24
28312;BME280;15572;48.810;9.148;2023-06-24T19:21:16;98516.88;;;25.39;37.33
28312;BME280;15572;48.810;9.148;2023-06-24T19:26:13;98511.16;;;25.20;37.83
28312;BME280;15572;48.810;9.148;2023-06-24T19:31:10;98509.28;;;25.05;38.21
28312;BME280;15572;48.810;9.148;2023-06-24T19:36:06;98513.47;;;24.88;38.65
28312;BME280;15572;48.810;9.148;2023-06-24T19:41:03;98518.72;;;24.79;38.74
28312;BME280;15572;48.810;9.148;2023-06-24T19:46:01;98523.75;;;24.67;38.99
28312;BME280;15572;48.810;9.148;2023-06-24T19:50:57;98515.75;;;24.40;39.76
28312;BME280;15572;48.810;9.148;2023-06-24T19:55:54;98522.69;;;24.22;40.00
28312;BME280;15572;48.810;9.148;2023-06-24T20:00:50;98526.00;;;24.19;40.26
28312;BME280;15572;48.810;9.148;2023-06-24T20:05:48;98532.63;;;24.08;40.62
28312;BME280;15572;48.810;9.148;2023-06-24T20:10:45;98530.94;;;23.97;41.18
28312;BME280;15572;48.810;9.148;2023-06-24T20:15:41;98535.31;;;23.68;41.52
28312;BME280;15572;48.810;9.148;2023-06-24T20:20:38;98537.19;;;23.47;42.20
28312;BME280;15572;48.810;9.148;2023-06-24T20:25:36;98529.38;;;23.34;43.01
28312;BME280;15572;48.810;9.148;2023-06-24T20:30:33;98526.59;;;23.24;43.58
28312;BME280;15572;48.810;9.148;2023-06-24T20:35:29;98522.66;;;23.09;43.93
28312;BME280;15572;48.810;9.148;2023-06-24T20:40:26;98534.94;;;22.87;44.82
28312;BME280;15572;48.810;9.148;2023-06-24T20:45:23;98530.13;;;22.67;45.66
28312;BME280;15572;48.810;9.148;2023-06-24T20:50:20;98526.84;;;22.33;47.65
28312;BME280;15572;48.810;9.148;2023-06-24T20:55:17;98521.44;;;22.11;48.54
28312;BME280;15572;48.810;9.148;2023-06-24T21:00:14;98520.34;;;21.85;50.12
28312;BME280;15572;48.810;9.148;2023-06-24T21:05:12;98521.50;;;21.63;50.96
28312;BME280;15572;48.810;9.148;2023-06-24T21:10:09;98524.41;;;21.51;51.74
28312;BME280;15572;48.810;9.148;2023-06-24T21:15:10;98523.66;;;21.34;52.40
28312;BME280;15572;48.810;9.148;2023-06-24T21:20:07;98517.69;;;21.15;53.01
28312;BME280;15572;48.810;9.148;2023-06-24T21:25:06;98515.38;;;20.90;54.85
28312;BME280;15572;48.810;9.148;2023-06-24T21:30:06;98525.28;;;20.70;56.01
28312;BME280;15572;48.810;9.148;2023-06-24T21:35:04;98525.56;;;20.51;56.74
28312;BME280;15572;48.810;9.148;2023-06-24T21:40:00;98522.84;;;20.35;58.32
28312;BME280;15572;48.810;9.148;2023-06-24T21:44:58;98522.56;;;20.19;59.65
28312;BME280;15572;48.810;9.148;2023-06-24T21:49:55;98527.72;;;19.99;59.50
28312;BME280;15572;48.810;9.148;2023-06-24T21:54:51;98522.38;;;19.93;59.77
28312;BME280;15572;48.810;9.148;2023-06-24T21:59:48;98528.38;;;19.73;62.96
28312;BME280;15572;48.810;9.148;2023-06-24T22:04:46;98520.53;;;19.65;63.80
28312;BME280;15572;48.810;9.148;2023-06-24T22:09:42;98521.00;;;19.62;62.21
28312;BME280;15572;48.810;9.148;2023-06-24T22:14:38;98526.00;;;19.48;62.76
28312;BME280;15572;48.810;9.148;2023-06-24T22:19:35;98520.59;;;19.42;64.01
28312;BME280;15572;48.810;9.148;2023-06-24T22:24:33;98526.38;;;19.28;65.02
28312;BME280;15572;48.810;9.148;2023-06-24T22:29:29;98518.44;;;19.15;66.99
28312;BME280;15572;48.810;9.148;2023-06-24T22:34:26;98518.38;;;18.99;66.29
28312;BME280;15572;48.810;9.148;2023-06-24T22:39:22;98509.44;;;18.91;64.88
28312;BME280;15572;48.810;9.148;2023-06-24T22:44:20;98506.16;;;18.78;65.26
28312;BME280;15572;48.810;9.148;2023-06-24T22:49:16;98510.78;;;18.77;65.95
28312;BME280;15572;48.810;9.148;2023-06-24T22:54:13;98512.03;;;18.58;69.21
28312;BME280;15572;48.810;9.148;2023-06-24T22:59:09;98506.50;;;18.46;69.21
28312;BME280;15572;48.810;9.148;2023-06-24T23:04:08;98513.19;;;18.50;69.39
28312;BME280;15572;48.810;9.148;2023-06-24T23:09:05;98499.38;;;18.34;70.41
28312;BME280;15572;48.810;9.148;2023-06-24T23:14:02;98501.88;;;18.24;71.48
28312;BME280;15572;48.810;9.148;2023-06-24T23:18:59;98502.72;;;18.24;72.16
28312;BME280;15572;48.810;9.148;2023-06-24T23:23:57;98488.03;;;17.95;74.47
28312;BME280;15572;48.810;9.148;2023-06-24T23:28:56;98490.78;;;17.95;74.60
28312;BME280;15572;48.810;9.148;2023-06-24T23:34:01;98479.94;;;17.89;73.08
28312;BME280;15572;48.810;9.148;2023-06-24T23:39:00;98490.41;;;17.80;73.38
28312;BME280;15572;48.810;9.148;2023-06-24T23:43:58;98482.88;;;17.76;74.09
28312;BME280;15572;48.810;9.148;2023-06-24T23:48:54;98486.56;;;17.70;74.07
28312;BME280;15572;48.810;9.148;2023-06-24T23:53:51;98484.66;;;17.70;74.29
28312;BME280;15572;48.810;9.148;2023-06-24T23:58:49;98477.88;;;17.61;75.15
